Opava, Czech Republic
Current Conditions -  °F | °C
As of 11:30 PM on Wednesday 22 Oct 2014 (Local Time) from LKMT Reporting Station
Light Rain Light Rain  
Wind Chill: 39°   Ceiling: 2300
Heat Index: 43°   Visibility: 6mi
Dew Point: 41°   Wind: 7mph
Humidity: 93%   Direction: 230°SW
Pressure: 29.68"   Gusts: NA
Location:  49.94°N, 17.89°E
Report Text: LKMT 222130Z 23006KT 9999 -RA FEW015 OVC023 06/05 Q1005 NOSIG
Loading
Personal Weather Stations






























Interactive Weather Map
Tropical Storm Tracking
New forecast layout! Learn more

10-Day Weather Forecast

Advertisements
Track Severe Weather on mobile